Time;durP1;ratioP1;P1;durP2;ratioP2;P2;SDS_P1;SDS_P2;PMS_P1;PMS_P2;Temp;Humidity;BMP_temperature;BMP_pressure;BME280_temperature;BME280_humidity;BME280_pressure;Samples;Min_cycle;Max_cycle;Signal;HPM_P1;HPM_P2
2022/05/12 00:02:29;;;;;;;3.83;2.15;;;19.70;62.70;;;;;;5048510;28;20025;-43
2022/05/12 00:04:56;;;;;;;8.77;2.03;;;19.60;62.40;;;;;;5048008;28;20455;-48
2022/05/12 00:07:22;;;;;;;3.70;2.00;;;19.60;61.80;;;;;;5048717;28;20508;-44
2022/05/12 00:09:49;;;;;;;4.63;1.90;;;19.60;61.40;;;;;;5049355;28;20037;-44
2022/05/12 00:12:22;;;;;;;3.53;2.13;;;19.60;61.20;;;;;;5049397;28;20463;-45
2022/05/12 00:14:52;;;;;;;2.97;2.00;;;19.60;60.80;;;;;;5049470;28;20075;-47
2022/05/12 00:17:22;;;;;;;4.78;2.10;;;19.50;60.40;;;;;;5050057;28;20103;-44
2022/05/12 00:19:54;;;;;;;4.33;1.93;;;19.50;60.50;;;;;;5046616;28;20099;-43
2022/05/12 00:22:23;;;;;;;;;;;19.40;59.80;;;;;;5052883;28;20099;-45
2022/05/12 00:24:55;;;;;;;6.20;1.95;;;19.50;59.40;;;;;;5052177;28;19955;-44
2022/05/12 00:27:22;;;;;;;3.95;1.95;;;19.40;59.00;;;;;;5051620;28;20625;-46
2022/05/12 00:29:48;;;;;;;3.53;1.85;;;19.30;59.10;;;;;;5053213;28;20040;-44
2022/05/12 00:32:15;;;;;;;4.03;2.55;;;19.20;58.70;;;;;;5051681;28;20049;-45
2022/05/12 00:34:42;;;;;;;4.65;2.30;;;19.20;59.30;;;;;;5049538;28;20079;-46
2022/05/12 00:37:11;;;;;;;4.80;2.15;;;19.10;58.80;;;;;;5052105;28;20496;-48
2022/05/12 00:39:38;;;;;;;5.70;2.65;;;19.00;58.90;;;;;;5032547;28;20111;-45
2022/05/12 00:42:06;;;;;;;5.60;2.80;;;18.90;58.60;;;;;;5031353;28;20049;-44
2022/05/12 00:44:38;;;;;;;4.13;2.45;;;18.90;59.00;;;;;;5025505;28;20119;-44
2022/05/12 00:47:05;;;;;;;3.60;2.55;;;18.90;59.10;;;;;;5051796;28;20267;-45
2022/05/12 00:49:35;;;;;;;11.57;5.28;;;18.70;59.20;;;;;;5052572;28;20117;-45
2022/05/12 00:52:11;;;;;;;4.63;2.90;;;18.70;59.40;;;;;;5044176;28;20049;-44
2022/05/12 00:54:42;;;;;;;4.38;2.22;;;18.60;59.60;;;;;;5049828;28;20467;-46
2022/05/12 00:57:12;;;;;;;3.83;2.65;;;18.60;59.60;;;;;;5051651;28;20106;-44
2022/05/12 00:59:43;;;;;;;2.78;2.53;;;18.50;59.80;;;;;;5032395;28;20096;-44
2022/05/12 01:02:14;;;;;;;2.58;2.38;;;18.50;60.00;;;;;;5014093;28;20049;-46
2022/05/12 01:04:45;;;;;;;5.00;3.20;;;18.40;60.00;;;;;;5050196;28;20496;-44
2022/05/12 01:07:15;;;;;;;4.13;2.92;;;18.40;60.00;;;;;;5051781;28;20137;-43
2022/05/12 01:09:42;;;;;;;2.90;2.55;;;18.40;59.80;;;;;;5051892;28;20098;-47
2022/05/12 01:12:10;;;;;;;5.55;3.00;;;18.30;60.00;;;;;;5047649;28;20501;-46
2022/05/12 01:14:40;;;;;;;6.03;3.45;;;18.30;60.00;;;;;;5048189;28;20049;-47
2022/05/12 01:17:09;;;;;;;5.30;2.63;;;18.20;59.70;;;;;;5042866;28;20059;-45
2022/05/12 01:19:39;;;;;;;6.85;3.15;;;18.10;59.60;;;;;;5051352;28;20041;-47
2022/05/12 01:22:09;;;;;;;3.50;3.17;;;18.10;59.80;;;;;;5049158;28;20102;-46
2022/05/12 01:24:45;;;;;;;3.20;2.90;;;18.10;59.80;;;;;;5042850;28;20049;-46
2022/05/12 01:27:19;;;;;;;4.82;3.35;;;18.00;59.90;;;;;;5051828;28;20451;-47
2022/05/12 01:29:52;;;;;;;4.43;3.42;;;18.00;59.90;;;;;;5050137;28;20090;-45
2022/05/12 01:32:23;;;;;;;3.83;3.13;;;17.90;59.90;;;;;;5048690;28;20574;-47
2022/05/12 01:34:55;;;;;;;3.38;2.75;;;17.90;60.00;;;;;;5044912;28;20037;-46
2022/05/12 01:37:23;;;;;;;8.63;3.17;;;17.90;59.90;;;;;;5051292;28;20049;-46
2022/05/12 01:39:51;;;;;;;7.55;3.28;;;17.80;59.90;;;;;;5049501;28;20041;-43
2022/05/12 01:42:20;;;;;;;5.65;3.15;;;17.80;60.20;;;;;;5047095;28;20045;-44
2022/05/12 01:44:51;;;;;;;4.25;3.00;;;17.70;60.10;;;;;;5050101;28;20052;-44
2022/05/12 01:47:19;;;;;;;3.50;3.00;;;17.70;60.20;;;;;;5050863;28;20052;-45
2022/05/12 01:49:48;;;;;;;4.15;3.38;;;17.70;60.30;;;;;;5049770;28;20063;-48
2022/05/12 01:52:14;;;;;;;4.75;2.85;;;17.60;60.20;;;;;;5050777;28;20045;-44
2022/05/12 01:54:41;;;;;;;4.68;2.75;;;17.60;60.00;;;;;;5050257;28;20077;-45
2022/05/12 01:57:10;;;;;;;4.53;2.95;;;17.60;60.10;;;;;;5050724;28;20554;-44
2022/05/12 01:59:39;;;;;;;4.85;3.55;;;17.50;60.00;;;;;;5050114;28;20045;-43
2022/05/12 02:02:08;;;;;;;5.88;3.65;;;17.50;59.90;;;;;;5050083;28;20044;-48
2022/05/12 02:04:35;;;;;;;4.07;2.95;;;17.50;59.80;;;;;;5041546;28;20164;-42
2022/05/12 02:07:04;;;;;;;4.72;2.40;;;17.40;59.80;;;;;;5048854;28;20041;-44
2022/05/12 02:09:36;;;;;;;5.10;2.90;;;17.40;60.10;;;;;;5049413;28;20050;-46
2022/05/12 02:12:05;;;;;;;5.33;3.10;;;17.30;60.10;;;;;;5050973;28;20731;-43
2022/05/12 02:14:35;;;;;;;4.35;2.05;;;17.30;59.80;;;;;;5050531;28;20370;-45
2022/05/12 02:17:04;;;;;;;3.97;2.58;;;17.30;59.80;;;;;;5046692;28;20119;-49
2022/05/12 02:19:30;;;;;;;3.72;2.40;;;17.20;59.70;;;;;;5050540;28;20079;-43
2022/05/12 02:21:58;;;;;;;2.72;2.28;;;17.20;59.80;;;;;;5050083;28;20095;-43
2022/05/12 02:24:28;;;;;;;2.70;2.35;;;17.10;59.60;;;;;;5050496;28;20051;-45
2022/05/12 02:26:58;;;;;;;6.72;2.42;;;17.10;59.80;;;;;;5048109;28;20076;-43
2022/05/12 02:29:32;;;;;;;2.80;2.10;;;17.10;59.80;;;;;;5049952;28;20090;-43
2022/05/12 02:31:59;;;;;;;3.05;2.25;;;17.00;59.80;;;;;;5049981;28;20064;-47
2022/05/12 02:34:29;;;;;;;3.30;2.03;;;17.00;59.60;;;;;;5049726;28;20079;-43
2022/05/12 02:37:01;;;;;;;3.88;2.38;;;16.90;59.60;;;;;;5048338;28;20524;-45
2022/05/12 02:39:31;;;;;;;2.38;1.98;;;16.90;59.50;;;;;;5050453;28;20102;-43
2022/05/12 02:42:00;;;;;;;4.10;2.03;;;16.80;59.50;;;;;;5048406;28;20041;-45
2022/05/12 02:44:30;;;;;;;3.05;1.98;;;16.80;59.30;;;;;;5047343;28;20056;-44
2022/05/12 02:47:04;;;;;;;2.47;2.17;;;16.70;59.20;;;;;;5047769;28;20041;-46
2022/05/12 02:49:31;;;;;;;3.95;2.67;;;16.70;59.60;;;;;;5050248;28;20041;-43
2022/05/12 02:52:01;;;;;;;2.22;2.03;;;16.60;59.20;;;;;;5041195;28;20060;-47
2022/05/12 02:54:28;;;;;;;3.78;2.28;;;16.60;59.40;;;;;;5042454;28;20505;-45
2022/05/12 02:56:55;;;;;;;3.35;2.40;;;16.50;59.40;;;;;;5048337;28;20106;-47
2022/05/12 02:59:23;;;;;;;3.38;2.08;;;16.50;59.50;;;;;;5049094;28;20049;-47
2022/05/12 03:01:49;;;;;;;2.42;1.95;;;16.40;59.50;;;;;;5049536;28;20079;-45
2022/05/12 03:04:22;;;;;;;2.70;2.10;;;16.30;59.60;;;;;;5047760;28;20840;-46
2022/05/12 03:06:51;;;;;;;3.55;2.30;;;16.20;59.50;;;;;;5048300;28;20037;-49
2022/05/12 03:09:18;;;;;;;3.88;2.20;;;16.20;59.50;;;;;;5048049;28;20110;-48
2022/05/12 03:11:45;;;;;;;3.13;2.83;;;16.20;59.90;;;;;;5030179;28;20069;-45
2022/05/12 03:14:11;;;;;;;2.97;2.63;;;16.10;59.90;;;;;;5045717;28;20041;-47
2022/05/12 03:16:42;;;;;;;2.55;2.20;;;16.10;60.10;;;;;;5048554;28;20043;-48
2022/05/12 03:19:11;;;;;;;3.70;2.38;;;16.10;60.20;;;;;;5033474;28;20480;-46
2022/05/12 03:21:38;;;;;;;2.72;2.22;;;16.00;60.10;;;;;;5034849;28;20049;-46
2022/05/12 03:24:05;;;;;;;4.15;2.22;;;16.00;60.10;;;;;;5048580;28;20639;-45
2022/05/12 03:26:35;;;;;;;2.85;2.53;;;15.90;60.10;;;;;;5049138;28;20517;-44
2022/05/12 03:29:01;;;;;;;5.00;3.08;;;15.90;60.30;;;;;;5049605;28;20456;-44
2022/05/12 03:31:30;;;;;;;3.95;2.70;;;15.80;60.00;;;;;;5049816;28;20059;-44
2022/05/12 03:34:07;;;;;;;2.70;2.00;;;15.80;60.00;;;;;;5049912;28;20037;-48
2022/05/12 03:36:36;;;;;;;4.05;2.45;;;15.80;60.00;;;;;;5040978;28;20729;-44
2022/05/12 03:39:07;;;;;;;2.38;2.17;;;15.80;60.00;;;;;;5050787;28;20083;-49
2022/05/12 03:41:34;;;;;;;4.38;2.35;;;15.70;59.90;;;;;;5047475;28;20083;-45
2022/05/12 03:46:46;;;;;;;2.25;2.05;;;15.60;59.80;;;;;;5051079;28;20037;-45
2022/05/12 03:49:17;;;;;;;2.45;1.80;;;15.60;59.80;;;;;;5054577;28;20071;-45
2022/05/12 03:51:48;;;;;;;3.90;2.10;;;15.60;59.80;;;;;;5050957;28;20515;-44
2022/05/12 03:54:16;;;;;;;2.38;2.17;;;15.50;59.80;;;;;;5054266;28;20076;-48
2022/05/12 03:56:43;;;;;;;3.13;2.20;;;15.50;59.60;;;;;;5053590;28;20468;-46
2022/05/12 03:59:15;;;;;;;2.88;2.17;;;15.40;59.70;;;;;;5054028;28;20048;-47
2022/05/12 04:01:45;;;;;;;3.25;2.33;;;15.40;59.60;;;;;;5050723;28;20037;-46
2022/05/12 04:04:13;;;;;;;3.55;2.65;;;15.30;59.60;;;;;;5044228;28;20064;-44
2022/05/12 04:06:40;;;;;;;4.80;2.67;;;15.30;59.70;;;;;;5041843;28;20124;-45
2022/05/12 04:09:07;;;;;;;2.30;2.10;;;15.30;59.70;;;;;;5046810;28;20037;-46
2022/05/12 04:11:35;;;;;;;3.22;2.38;;;15.20;59.70;;;;;;5034629;28;20087;-45
2022/05/12 04:14:04;;;;;;;2.10;1.90;;;15.20;59.90;;;;;;5035624;28;20037;-48
2022/05/12 04:16:35;;;;;;;2.67;2.42;;;15.10;59.90;;;;;;5038346;28;20076;-45
2022/05/12 04:19:05;;;;;;;4.53;2.47;;;15.10;60.30;;;;;;5041295;28;20037;-45
2022/05/12 04:21:37;;;;;;;2.25;2.15;;;15.10;60.40;;;;;;5052187;28;20056;-44
2022/05/12 04:24:05;;;;;;;4.32;2.25;;;15.10;60.60;;;;;;5052717;28;20095;-46
2022/05/12 04:26:34;;;;;;;4.10;2.97;;;15.10;60.70;;;;;;5047076;28;20033;-47
2022/05/12 04:29:01;;;;;;;3.72;2.67;;;15.10;61.40;;;;;;5050222;28;20041;-45
2022/05/12 04:31:28;;;;;;;2.90;2.65;;;15.10;61.70;;;;;;5054495;23;20060;-48
2022/05/12 04:36:41;;;;;;;3.30;2.20;;;15.20;62.30;;;;;;5043584;28;20052;-49
2022/05/12 04:39:08;;;;;;;2.22;1.90;;;15.20;62.20;;;;;;5046169;28;20033;-48
2022/05/12 04:41:35;;;;;;;4.15;2.65;;;15.20;62.40;;;;;;5051038;28;20037;-47
2022/05/12 04:44:05;;;;;;;7.10;2.90;;;15.30;62.80;;;;;;5050560;28;20079;-52
2022/05/12 04:46:34;;;;;;;4.95;3.08;;;15.30;63.10;;;;;;5039021;28;20103;-52
2022/05/12 04:49:02;;;;;;;4.82;3.42;;;15.30;63.20;;;;;;5038956;28;20041;-48
2022/05/12 04:51:29;;;;;;;9.35;3.50;;;15.30;63.40;;;;;;5044484;28;20037;-48
2022/05/12 04:53:56;;;;;;;5.30;3.03;;;15.40;63.60;;;;;;5040531;28;20069;-47
2022/05/12 04:56:23;;;;;;;4.40;2.75;;;15.40;63.60;;;;;;5044854;28;20566;-49
2022/05/12 04:58:49;;;;;;;3.88;3.08;;;15.50;63.70;;;;;;5046878;28;20090;-49
2022/05/12 05:01:16;;;;;;;4.80;2.78;;;15.60;63.80;;;;;;5051254;28;20102;-47
2022/05/12 05:03:43;;;;;;;4.63;2.72;;;15.60;63.90;;;;;;5044653;28;20034;-47
2022/05/12 05:06:10;;;;;;;5.97;3.50;;;15.60;63.90;;;;;;5048106;28;20103;-50
2022/05/12 05:08:37;;;;;;;5.75;3.47;;;15.70;63.90;;;;;;5044292;28;20033;-55
2022/05/12 05:11:06;;;;;;;6.47;3.65;;;15.70;63.90;;;;;;5052246;28;20052;-53
2022/05/12 05:13:33;;;;;;;5.20;3.33;;;15.80;64.00;;;;;;5051306;28;20592;-50
2022/05/12 05:16:00;;;;;;;5.05;3.80;;;15.80;64.00;;;;;;5049875;28;20094;-49
2022/05/12 05:18:27;;;;;;;7.65;3.47;;;15.80;64.10;;;;;;5050268;28;20045;-47
2022/05/12 05:20:54;;;;;;;4.80;3.40;;;15.90;64.00;;;;;;5052283;28;20044;-48
2022/05/12 05:23:21;;;;;;;8.73;3.70;;;16.00;64.10;;;;;;5049353;28;20045;-51
2022/05/12 05:25:50;;;;;;;6.45;3.28;;;16.00;64.00;;;;;;5046328;28;20056;-55
2022/05/12 05:28:17;;;;;;;6.78;4.03;;;16.00;64.60;;;;;;5025838;28;20444;-50
2022/05/12 05:30:45;;;;;;;9.07;4.05;;;16.10;64.10;;;;;;5042757;28;20069;-48
2022/05/12 05:33:11;;;;;;;11.88;4.55;;;16.10;64.00;;;;;;5035462;28;20570;-52
2022/05/12 05:35:38;;;;;;;7.57;4.57;;;16.20;64.10;;;;;;5047273;28;20069;-50
2022/05/12 05:38:05;;;;;;;8.05;5.55;;;16.20;64.30;;;;;;5048271;28;20040;-49
2022/05/12 05:40:32;;;;;;;11.00;6.18;;;16.20;64.30;;;;;;5061380;28;20472;-51
2022/05/12 05:42:59;;;;;;;9.25;7.00;;;16.30;64.20;;;;;;5068425;28;20561;-51
2022/05/12 05:45:27;;;;;;;10.15;8.02;;;16.30;64.20;;;;;;5048178;28;20044;-48
2022/05/12 05:47:58;;;;;;;11.52;8.10;;;16.40;64.30;;;;;;5047658;28;20045;-50
2022/05/12 05:53:27;;;;;;;12.93;8.25;;;16.40;64.60;;;;;;5045715;28;20049;-53
2022/05/12 05:55:57;;;;;;;10.10;8.05;;;16.50;64.40;;;;;;5047629;28;20793;-50
2022/05/12 05:58:24;;;;;;;13.30;9.45;;;16.50;64.50;;;;;;5047111;28;20568;-50
2022/05/12 06:00:51;;;;;;;16.83;10.00;;;16.50;64.50;;;;;;5048390;28;20098;-50
2022/05/12 06:03:18;;;;;;;13.18;9.38;;;16.50;64.50;;;;;;5045845;28;20045;-54
2022/05/12 06:05:45;;;;;;;15.73;9.52;;;16.60;64.60;;;;;;5029724;28;20037;-49
2022/05/12 06:08:14;;;;;;;15.13;9.73;;;16.60;64.70;;;;;;5047852;28;20082;-48
2022/05/12 06:10:43;;;;;;;12.35;10.40;;;16.60;65.00;;;;;;5047162;28;20041;-51
2022/05/12 06:13:11;;;;;;;17.38;11.77;;;16.60;65.20;;;;;;5043058;28;20068;-53
2022/05/12 06:15:38;;;;;;;21.15;12.07;;;16.60;65.20;;;;;;5041858;28;20068;-49
2022/05/12 06:18:13;;;;;;;16.20;11.93;;;16.70;65.10;;;;;;5042329;28;20044;-49
2022/05/12 06:20:41;;;;;;;15.35;11.40;;;16.70;65.50;;;;;;5048065;28;20068;-51
2022/05/12 06:23:10;;;;;;;15.40;10.95;;;16.80;65.40;;;;;;5041949;28;20056;-48
2022/05/12 06:25:37;;;;;;;15.98;10.60;;;16.70;65.60;;;;;;5041561;28;20094;-51
2022/05/12 06:28:04;;;;;;;17.60;11.60;;;16.80;65.60;;;;;;5047314;28;20045;-52
2022/05/12 06:30:31;;;;;;;15.85;11.50;;;16.80;65.60;;;;;;5042671;28;20080;-56
2022/05/12 06:32:58;;;;;;;18.48;11.45;;;16.80;65.60;;;;;;5045469;28;20504;-49
2022/05/12 06:35:26;;;;;;;14.77;11.70;;;16.90;65.60;;;;;;5047639;28;20094;-49
2022/05/12 06:37:53;;;;;;;18.10;12.25;;;16.90;65.30;;;;;;5049655;28;20048;-47
2022/05/12 06:40:20;;;;;;;14.52;10.07;;;17.00;65.40;;;;;;5048398;28;20045;-51
2022/05/12 06:42:50;;;;;;;16.67;12.27;;;17.00;65.50;;;;;;5032684;28;20052;-47
2022/05/12 06:45:19;;;;;;;17.50;12.05;;;17.00;65.50;;;;;;5048449;28;20102;-48
2022/05/12 06:47:50;;;;;;;18.05;11.75;;;17.10;65.80;;;;;;5048694;28;20043;-51
2022/05/12 06:50:23;;;;;;;17.35;12.75;;;17.10;65.90;;;;;;5047620;28;20037;-51
2022/05/12 06:52:51;;;;;;;18.30;13.75;;;17.00;65.90;;;;;;5053644;28;20479;-47
2022/05/12 06:55:19;;;;;;;20.48;13.82;;;17.20;65.80;;;;;;5048627;28;20081;-47
2022/05/12 06:57:47;;;;;;;18.85;12.18;;;17.30;66.10;;;;;;5030279;28;20045;-47
2022/05/12 07:00:16;;;;;;;22.25;15.57;;;17.50;66.30;;;;;;5026927;28;20106;-52
2022/05/12 07:02:45;;;;;;;21.05;15.07;;;17.60;66.30;;;;;;5042774;28;20575;-50
2022/05/12 07:05:13;;;;;;;26.73;16.42;;;17.70;66.10;;;;;;5041039;28;20135;-49
2022/05/12 07:07:42;;;;;;;20.92;16.38;;;17.80;66.20;;;;;;5046048;28;20056;-52
2022/05/12 07:10:09;;;;;;;23.17;15.85;;;17.90;65.10;;;;;;5047677;28;20040;-50
2022/05/12 07:12:37;;;;;;;20.98;15.90;;;18.10;64.80;;;;;;5041091;28;20040;-55
2022/05/12 07:15:05;;;;;;;21.75;15.57;;;18.10;64.50;;;;;;5037282;28;20413;-50
2022/05/12 07:17:33;;;;;;;20.17;15.05;;;18.20;64.70;;;;;;5030271;28;20104;-51
2022/05/12 07:28:16;;;;;;;20.60;14.50;;;18.70;63.50;;;;;;5051318;28;20036;-49
2022/05/12 07:31:01;;;;;;;19.83;13.63;;;18.80;63.20;;;;;;5055351;28;20040;-47
2022/05/12 07:33:37;;;;;;;17.85;13.95;;;18.90;62.80;;;;;;5054748;28;20036;-48
2022/05/12 07:36:09;;;;;;;19.15;13.82;;;19.10;63.50;;;;;;5034935;28;20451;-51
2022/05/12 07:38:36;;;;;;;;;;;19.20;62.70;;;;;;5059650;28;20468;-51
2022/05/12 07:41:09;;;;;;;17.33;11.65;;;19.30;62.00;;;;;;5052638;28;19983;-47
2022/05/12 07:43:36;;;;;;;17.63;13.55;;;19.30;61.30;;;;;;5038833;28;20107;-51
2022/05/12 07:46:03;;;;;;;16.98;13.30;;;19.30;61.40;;;;;;5052879;28;20071;-49
2022/05/12 07:48:30;;;;;;;16.90;13.00;;;19.30;60.90;;;;;;5053967;28;20760;-50
2022/05/12 07:50:56;;;;;;;16.77;13.02;;;19.30;61.20;;;;;;5059923;28;20090;-50
2022/05/12 07:53:23;;;;;;;15.32;11.93;;;19.40;61.50;;;;;;5053788;28;20115;-52
2022/05/12 07:55:50;;;;;;;14.80;11.75;;;19.40;61.20;;;;;;5054805;28;20064;-48
2022/05/12 07:58:17;;;;;;;14.88;10.55;;;19.40;61.10;;;;;;5055078;28;20087;-50
2022/05/12 08:00:44;;;;;;;13.27;9.40;;;19.40;60.80;;;;;;5055837;28;20037;-47
2022/05/12 08:03:11;;;;;;;12.65;9.70;;;19.50;60.40;;;;;;5050463;28;20055;-54
2022/05/12 08:05:38;;;;;;;13.93;9.18;;;19.50;60.00;;;;;;5054202;28;20083;-49
2022/05/12 08:08:06;;;;;;;15.18;10.23;;;19.50;59.90;;;;;;5056147;28;20451;-48
2022/05/12 08:10:34;;;;;;;14.45;9.85;;;19.50;60.00;;;;;;5038410;28;20462;-52
2022/05/12 08:13:01;;;;;;;12.93;10.07;;;19.60;59.90;;;;;;5055313;28;20041;-52
2022/05/12 08:15:27;;;;;;;14.82;10.88;;;19.60;59.40;;;;;;5050424;28;20102;-48
2022/05/12 08:17:56;;;;;;;15.20;11.55;;;19.70;58.80;;;;;;5055130;28;20059;-52
2022/05/12 08:20:25;;;;;;;21.30;12.43;;;19.70;58.80;;;;;;5055770;28;20695;-48
2022/05/12 08:22:51;;;;;;;17.40;11.55;;;19.80;59.30;;;;;;5055125;28;20066;-51
2022/05/12 08:25:18;;;;;;;13.43;9.77;;;19.80;59.10;;;;;;5052542;28;20084;-49
2022/05/12 08:27:45;;;;;;;13.13;8.85;;;19.80;59.10;;;;;;5055897;28;20044;-49
2022/05/12 08:30:15;;;;;;;16.85;9.85;;;19.80;58.40;;;;;;5055179;28;20167;-48
2022/05/12 08:32:43;;;;;;;12.30;9.00;;;19.90;58.70;;;;;;5045768;28;20044;-48
2022/05/12 08:35:10;;;;;;;10.23;8.60;;;19.90;58.40;;;;;;5050235;28;20094;-51
2022/05/12 08:37:37;;;;;;;9.43;7.97;;;19.90;57.90;;;;;;5047970;28;20447;-49
2022/05/12 08:40:05;;;;;;;14.15;8.68;;;19.90;58.00;;;;;;5033671;28;20140;-53
2022/05/12 08:42:44;;;;;;;10.55;8.57;;;20.00;57.90;;;;;;5045076;28;20034;-51
2022/05/12 08:45:16;;;;;;;10.73;8.50;;;20.00;58.70;;;;;;5048663;28;20497;-51
2022/05/12 08:47:48;;;;;;;11.23;8.90;;;20.10;58.70;;;;;;5052549;28;20041;-50
2022/05/12 08:50:19;;;;;;;;;;;20.20;58.00;;;;;;5052852;28;20442;-53
2022/05/12 08:52:51;;;;;;;8.93;7.43;;;20.30;58.00;;;;;;5051537;28;20448;-51
2022/05/12 08:55:30;;;;;;;10.20;7.40;;;20.40;56.90;;;;;;5049320;28;20049;-50
2022/05/12 08:58:11;;;;;;;11.02;7.60;;;20.40;56.70;;;;;;5052348;28;20053;-53
2022/05/12 09:00:49;;;;;;;8.35;6.25;;;20.40;56.50;;;;;;5049398;28;20554;-53
2022/05/12 09:03:19;;;;;;;8.73;6.70;;;20.40;55.70;;;;;;5048933;28;20079;-48
2022/05/12 09:06:19;;;;;;;9.05;6.32;;;20.40;55.80;;;;;;5051215;28;20043;-47
2022/05/12 09:09:15;;;;;;;10.27;6.82;;;20.40;55.50;;;;;;5047398;28;20049;-47
2022/05/12 09:12:05;;;;;;;10.32;6.20;;;20.30;56.50;;;;;;5047633;28;20087;-51
2022/05/12 09:14:41;;;;;;;10.35;6.97;;;20.20;55.80;;;;;;5051351;28;20041;-49
2022/05/12 09:17:39;;;;;;;8.25;6.35;;;20.20;56.60;;;;;;5052023;28;20079;-51
2022/05/12 09:20:09;;;;;;;4.75;4.22;;;20.20;56.60;;;;;;5050412;28;20451;-49
2022/05/12 09:22:38;;;;;;;4.70;3.65;;;20.20;55.30;;;;;;5044193;28;20083;-48
2022/05/12 09:25:06;;;;;;;8.45;4.95;;;20.30;54.00;;;;;;5031190;28;20037;-53
2022/05/12 09:27:36;;;;;;;6.95;5.07;;;20.30;54.80;;;;;;5047021;28;20043;-51
2022/05/12 09:30:07;;;;;;;8.88;5.10;;;20.40;54.20;;;;;;5050905;28;20040;-51
2022/05/12 09:32:37;;;;;;;6.15;4.63;;;20.40;53.70;;;;;;5051451;28;20099;-48
2022/05/12 09:35:18;;;;;;;6.07;5.38;;;20.40;53.70;;;;;;5050419;28;20041;-48
2022/05/12 09:37:45;;;;;;;5.80;4.50;;;20.50;53.50;;;;;;5051521;28;20392;-55
2022/05/12 09:40:22;;;;;;;7.47;5.18;;;20.50;53.80;;;;;;5051056;28;20053;-49
2022/05/12 09:43:00;;;;;;;6.40;4.78;;;20.60;53.90;;;;;;5051241;28;20040;-51
2022/05/12 09:45:36;;;;;;;5.32;4.00;;;20.60;53.90;;;;;;5032265;28;20083;-52
2022/05/12 09:48:22;;;;;;;5.25;4.57;;;20.70;53.70;;;;;;5050996;28;20071;-48
2022/05/12 09:50:50;;;;;;;7.50;5.32;;;20.80;52.60;;;;;;5047218;28;20086;-52
2022/05/12 09:53:32;;;;;;;5.75;3.92;;;20.80;52.50;;;;;;5049236;28;20409;-48
2022/05/12 09:56:06;;;;;;;6.28;4.60;;;20.80;51.90;;;;;;5046198;28;20103;-49
2022/05/12 09:58:48;;;;;;;7.47;4.88;;;20.90;52.50;;;;;;5045376;28;20509;-50
2022/05/12 10:01:24;;;;;;;5.88;3.38;;;20.90;52.80;;;;;;5047862;28;20471;-47
2022/05/12 10:09:53;;;;;;;6.65;2.78;;;21.20;52.20;;;;;;5038480;28;20065;-56
2022/05/12 10:12:33;;;;;;;3.22;2.50;;;21.30;50.50;;;;;;5043464;28;20045;-52
2022/05/12 10:15:07;;;;;;;3.70;2.53;;;21.40;50.20;;;;;;5044632;28;20562;-52
2022/05/12 10:18:12;;;;;;;5.05;2.50;;;21.60;49.80;;;;;;5047788;28;20492;-49
2022/05/12 10:20:44;;;;;;;8.43;4.60;;;21.60;49.70;;;;;;4994783;28;20057;-54
2022/05/12 10:23:34;;;;;;;;;;;21.70;50.20;;;;;;5041932;28;20615;-51
2022/05/12 10:26:10;;;;;;;2.88;2.28;;;21.80;50.20;;;;;;5030179;28;19925;-52
2022/05/12 10:28:48;;;;;;;2.63;2.22;;;21.90;49.40;;;;;;5046125;28;20044;-49
2022/05/12 10:31:40;;;;;;;5.13;3.10;;;21.90;49.90;;;;;;5044093;28;20037;-51
2022/05/12 10:34:44;;;;;;;4.63;2.63;;;22.00;49.20;;;;;;5048090;28;20033;-51
2022/05/12 10:37:37;;;;;;;3.17;2.53;;;22.00;48.30;;;;;;5046239;28;20049;-48
2022/05/12 10:40:23;;;;;;;4.22;2.08;;;22.00;48.30;;;;;;5045113;28;20095;-53
2022/05/12 10:43:34;;;;;;;5.05;2.53;;;22.00;47.50;;;;;;5029689;28;20050;-49
2022/05/12 10:46:31;;;;;;;4.28;3.10;;;22.00;48.00;;;;;;4959569;28;20042;-48
2022/05/12 10:49:35;;;;;;;5.85;3.33;;;22.00;47.20;;;;;;4954072;28;20607;-52
2022/05/12 10:52:32;;;;;;;5.80;3.45;;;22.00;47.90;;;;;;5049540;28;20084;-53
2022/05/12 10:55:20;;;;;;;4.22;2.88;;;21.90;47.70;;;;;;5047198;28;20098;-49
2022/05/12 10:58:19;;;;;;;6.07;3.03;;;21.90;47.90;;;;;;5040986;28;20045;-54
2022/05/12 11:01:15;;;;;;;3.53;2.58;;;21.80;48.50;;;;;;5043428;28;20053;-52
2022/05/12 11:03:51;;;;;;;3.47;3.17;;;21.80;48.10;;;;;;5046695;28;20037;-49
2022/05/12 11:06:21;;;;;;;3.28;2.53;;;21.90;47.50;;;;;;5048574;28;20037;-50
2022/05/12 11:08:55;;;;;;;4.70;2.58;;;21.90;47.90;;;;;;5049855;28;20037;-52
2022/05/12 11:11:31;;;;;;;3.28;1.95;;;22.00;47.30;;;;;;5030915;28;20538;-48
2022/05/12 11:14:19;;;;;;;4.55;2.28;;;22.00;46.80;;;;;;5049223;28;20037;-48
2022/05/12 11:16:53;;;;;;;1.80;1.70;;;22.10;45.60;;;;;;5043321;28;20452;-52
2022/05/12 11:19:23;;;;;;;2.92;2.47;;;22.20;46.30;;;;;;5050220;28;20044;-50
2022/05/12 11:22:25;;;;;;;2.78;2.58;;;22.30;45.50;;;;;;5048759;28;20516;-52
2022/05/12 11:25:16;;;;;;;3.92;1.92;;;22.40;45.80;;;;;;5049053;28;20041;-48
2022/05/12 11:27:54;;;;;;;4.40;2.42;;;22.40;45.80;;;;;;5050061;28;20135;-55
2022/05/12 11:30:31;;;;;;;3.13;1.80;;;22.50;45.00;;;;;;5044666;28;20037;-53
2022/05/12 11:33:28;;;;;;;3.40;1.90;;;22.60;45.50;;;;;;5046288;28;20110;-51
2022/05/12 11:35:55;;;;;;;2.55;2.05;;;22.60;43.60;;;;;;5044012;28;20040;-49
2022/05/12 11:38:39;;;;;;;2.83;2.15;;;22.70;44.50;;;;;;5049364;28;20106;-50
2022/05/12 11:41:32;;;;;;;2.90;2.17;;;22.80;43.30;;;;;;5050786;28;20040;-50
2022/05/12 11:44:27;;;;;;;4.53;1.90;;;22.90;43.00;;;;;;5034881;28;20420;-48
2022/05/12 11:47:26;;;;;;;2.72;2.30;;;22.90;43.20;;;;;;5049509;28;20041;-54
2022/05/12 11:50:04;;;;;;;4.18;2.47;;;23.00;42.90;;;;;;5029881;28;20053;-52
2022/05/12 11:52:42;;;;;;;3.58;1.95;;;23.00;43.00;;;;;;5046422;28;20076;-48
2022/05/12 11:55:35;;;;;;;5.13;2.20;;;23.10;43.40;;;;;;5048988;28;20090;-52
2022/05/12 11:58:12;;;;;;;6.18;1.90;;;23.10;43.30;;;;;;5062439;28;20127;-48
2022/05/12 12:00:41;;;;;;;2.83;1.80;;;23.20;40.70;;;;;;5054508;28;20037;-49
2022/05/12 12:03:19;;;;;;;3.80;2.58;;;23.30;42.90;;;;;;5046433;28;20044;-52
2022/05/12 12:05:49;;;;;;;3.25;1.73;;;23.40;40.80;;;;;;5040510;28;20045;-51
2022/05/12 12:08:30;;;;;;;5.95;1.83;;;23.50;41.10;;;;;;5046888;28;20102;-53
2022/05/12 12:11:19;;;;;;;3.50;1.93;;;23.70;40.50;;;;;;5048670;28;20750;-51
2022/05/12 12:13:51;;;;;;;1.95;1.30;;;23.70;40.70;;;;;;5045129;28;20639;-48
2022/05/12 12:16:21;;;;;;;1.92;1.30;;;23.80;41.70;;;;;;5049800;28;20084;-49
2022/05/12 12:18:57;;;;;;;3.05;1.80;;;23.90;40.80;;;;;;5049768;28;20073;-48
2022/05/12 12:21:38;;;;;;;3.35;1.90;;;24.10;40.10;;;;;;5048662;28;20052;-48
2022/05/12 12:24:20;;;;;;;2.55;1.88;;;24.20;39.10;;;;;;5050425;28;20049;-52
2022/05/12 12:26:55;;;;;;;2.60;1.63;;;24.30;38.80;;;;;;5048353;28;20040;-53
2022/05/12 12:29:45;;;;;;;2.78;1.92;;;24.40;40.10;;;;;;5046999;28;20570;-53
2022/05/12 12:32:31;;;;;;;2.90;1.63;;;24.40;39.20;;;;;;5049982;28;20037;-54
2022/05/12 12:35:28;;;;;;;2.58;1.60;;;24.50;38.80;;;;;;5047698;28;20102;-51
2022/05/12 12:37:55;;;;;;;2.67;1.33;;;24.60;38.80;;;;;;5041802;28;20053;-51
2022/05/12 12:40:31;;;;;;;22.92;3.22;;;24.70;38.10;;;;;;5047619;28;20450;-51
2022/05/12 12:43:18;;;;;;;12.88;2.30;;;24.90;36.90;;;;;;5047733;28;20459;-53
2022/05/12 12:45:52;;;;;;;3.78;2.08;;;25.00;37.30;;;;;;5046799;28;20373;-52
2022/05/12 12:48:30;;;;;;;2.70;1.40;;;25.20;36.50;;;;;;5050377;28;20123;-52
2022/05/12 12:50:57;;;;;;;2.25;1.83;;;25.30;36.80;;;;;;5055517;28;20094;-52
2022/05/12 12:56:30;;;;;;;3.20;1.73;;;25.40;36.70;;;;;;5052230;28;20068;-51
2022/05/12 12:56:36;;;;;;;4.63;1.88;;;25.40;36.50;;;;;;5050546;28;20052;-54
2022/05/12 12:59:12;;;;;;;5.28;2.42;;;25.50;36.60;;;;;;5046726;28;20041;-53
2022/05/12 13:01:56;;;;;;;2.10;1.90;;;25.50;36.20;;;;;;5041564;28;20635;-51
2022/05/12 13:04:34;;;;;;;2.90;1.88;;;25.60;36.30;;;;;;5041831;28;20044;-57
2022/05/12 13:07:08;;;;;;;2.25;1.45;;;25.60;35.30;;;;;;5044428;28;20141;-53
2022/05/12 13:09:37;;;;;;;1.77;1.58;;;25.60;35.40;;;;;;5049551;28;20044;-51
2022/05/12 13:12:07;;;;;;;4.72;1.80;;;25.70;36.10;;;;;;5046895;28;20127;-56
2022/05/12 13:14:35;;;;;;;2.28;1.60;;;25.80;36.80;;;;;;5043529;28;20559;-50
2022/05/12 13:17:02;;;;;;;2.30;1.38;;;25.90;35.50;;;;;;5009361;28;20052;-55
2022/05/12 13:19:38;;;;;;;2.47;1.77;;;26.10;35.10;;;;;;5036900;28;20102;-53
2022/05/12 13:22:07;;;;;;;13.05;3.83;;;26.20;34.60;;;;;;5031180;28;20126;-56
2022/05/12 13:24:36;;;;;;;2.38;2.13;;;26.40;34.90;;;;;;5042028;28;20127;-53
2022/05/12 13:27:04;;;;;;;4.28;2.00;;;26.50;35.00;;;;;;5013631;28;20068;-54
2022/05/12 13:29:39;;;;;;;2.72;1.98;;;26.60;34.60;;;;;;5043121;28;20048;-53
2022/05/12 13:32:30;;;;;;;3.10;1.85;;;26.50;34.20;;;;;;5039076;28;20047;-54
2022/05/12 13:34:58;;;;;;;3.90;2.40;;;26.50;33.80;;;;;;5026244;28;20105;-53